Silver Star, MT (59751)

09:00 MDT le 05 juillet 2015 (GMT -0600)
Mooney | | Change Station
CLOSE
Current Station
Aéroport
Location: Butte,
Altitude: 5545 ft
Stations météo à proximité

Alt. 5545 ft 45.95 °N, 112.50 °W | Updated 7 minutes ago

Nuageux
Nuageux
57 ° F
Paraît 57 ° F
N
5
Vent Variable Vent de NNE

Aujourd'hui
Haut(e) -- | Bas -- ° F
--% Risque de précip.
Hier
Haut(e) -- | Bas -- ° F
Precip. -- pouce
5:45 AM 9:21 PM
Lune gibbeuse décroissante, 84% visible
Pression 29.94 pouce
Visibilité 10.0 Miles terrestres
Nuages Nuages épars 2100 ft
Couvert 2700 ft
Point de rosée 48 ° F
Humidité 72%
Précipitations 0.00 pouce
Profondeur de la couche neigeuse Non disponible.
UV 1 sur 12
Pollen 4.20 sur 12
Qualité de l'air Non disponible.
Flu Activity Non disponible.
METAR KBTM 051453Z AUTO 02004KT 10SM SCT021 OVC027 14/09 A3013 RMK AO2 SLP139 T01390089 53007

More Conditions Fewer Conditions

Pression 29.94 pouce
Visibilité 10.0 Miles terrestres
Nuages Nuages épars 2100 ft
Couvert 2700 ft
Point de rosée 48 ° F
Humidité 72%
Précipitations 0.00 pouce
Profondeur de la couche neigeuse Non disponible.
UV 1 sur 12
Pollen 4.20 sur 12
Qualité de l'air Non disponible.
Flu Activity Non disponible.
METAR KBTM 051453Z AUTO 02004KT 10SM SCT021 OVC027 14/09 A3013 RMK AO2 SLP139 T01390089 53007

More Conditions Fewer Conditions

10-Day Weather Forecast

×

Almanac

Astronomie

Jul. 05, 2015 Lever Coucher
Temps réel
Crépuscule civil
Crépuscule nautique
Crépuscule astronomique
Lune
Durée de lumière visible
Longueur du jour
Tomorrow will be .
, % of the Moon is Illuminated

Extrêmes aujourd'hui

State Highs State Lows

Community

WunderPhotos

Upload Photos

1,835,280 Photos téléchargées !

WunderBlogs® & News

Nearby

Qualité de l'air

  Qualité de l'air Indice de la qualité de l'air Polluant
Not available.

Épaisseur de neige

Station Depth Altitude

Activité sismique

Ville Distance Mag. Time & Date
Minimum magnitude displayed is 2.5.

Températures des eaux côtières

Lieu Température

Stations

Stations météo à proximité

Emplacement de la station Température Refroidissement éolien Point de rosée Humidité Vent Precip. Alt. Mise à jour Type